Time;durP1;ratioP1;P1;durP2;ratioP2;P2;SDS_P1;SDS_P2;PMS_P1;PMS_P2;Temp;Humidity;BMP_temperature;BMP_pressure;BME280_temperature;BME280_humidity;BME280_pressure;Samples;Min_cycle;Max_cycle;Signal;HPM_P1;HPM_P2
2021/10/07 00:01:22;;;;;;;6.53;3.03;;;;;;;;;;5064672;28;20664;-76
2021/10/07 00:03:49;;;;;;;4.50;3.00;;;;;;;;;;5052337;28;20196;-76
2021/10/07 00:06:16;;;;;;;4.43;2.87;;;;;;;;;;5054115;28;20762;-76
2021/10/07 00:08:43;;;;;;;5.23;3.10;;;;;;;;;;5070857;28;20203;-76
2021/10/07 00:11:12;;;;;;;5.70;3.50;;;;;;;;;;5054885;28;20306;-76
2021/10/07 00:13:39;;;;;;;6.87;3.30;;;;;;;;;;5052219;28;20200;-76
2021/10/07 00:16:08;;;;;;;4.30;3.03;;;;;;;;;;5051949;28;20214;-76
2021/10/07 00:18:37;;;;;;;7.60;3.10;;;;;;;;;;5053980;28;20308;-76
2021/10/07 00:21:04;;;;;;;6.43;3.07;;;;;;;;;;5056403;28;20208;-76
2021/10/07 00:23:35;;;;;;;6.70;4.03;;;;;;;;;;5063478;28;20209;-76
2021/10/07 00:26:03;;;;;;;6.53;3.40;;;;;;;;;;5065049;28;20219;-76
2021/10/07 00:28:32;;;;;;;5.53;3.50;;;;;;;;;;5071077;28;20368;-76
2021/10/07 00:31:02;;;;;;;7.63;3.17;;;;;;;;;;5069707;28;20226;-76
2021/10/07 00:33:37;;;;;;;6.13;3.23;;;;;;;;;;5068831;28;20206;-77
2021/10/07 00:36:11;;;;;;;5.37;3.30;;;;;;;;;;5064655;28;20269;-73
2021/10/07 00:41:23;;;;;;;7.60;3.73;;;;;;;;;;5078768;28;20229;-76
2021/10/07 00:43:50;;;;;;;5.23;3.53;;;;;;;;;;5085645;28;20290;-77
2021/10/07 00:46:18;;;;;;;6.47;3.77;;;;;;;;;;5075697;28;20326;-76
2021/10/07 00:48:46;;;;;;;4.87;3.43;;;;;;;;;;5077305;28;20230;-76
2021/10/07 00:51:14;;;;;;;8.50;3.97;;;;;;;;;;5088456;28;20252;-75
2021/10/07 00:53:41;;;;;;;5.93;3.80;;;;;;;;;;5090755;28;20284;-76
2021/10/07 00:56:08;;;;;;;7.40;3.57;;;;;;;;;;5090514;28;20191;-76
2021/10/07 00:58:35;;;;;;;5.27;3.67;;;;;;;;;;5077744;28;20200;-76
2021/10/07 01:01:02;;;;;;;5.90;3.87;;;;;;;;;;5081118;28;20292;-76
2021/10/07 01:03:33;;;;;;;6.77;4.40;;;;;;;;;;5095785;28;20222;-76
2021/10/07 01:06:01;;;;;;;6.40;3.83;;;;;;;;;;5082742;28;20230;-76
2021/10/07 01:08:29;;;;;;;6.00;3.80;;;;;;;;;;5081082;28;20199;-76
2021/10/07 01:10:56;;;;;;;7.70;3.77;;;;;;;;;;5082873;28;20294;-76
2021/10/07 01:13:23;;;;;;;7.03;3.53;;;;;;;;;;5075582;28;20294;-76
2021/10/07 01:15:50;;;;;;;4.93;3.30;;;;;;;;;;5075364;28;20294;-75
2021/10/07 01:18:17;;;;;;;7.07;3.57;;;;;;;;;;5087264;28;20201;-76
2021/10/07 01:20:46;;;;;;;5.53;3.17;;;;;;;;;;5092826;28;20281;-76
2021/10/07 01:23:13;;;;;;;4.73;3.17;;;;;;;;;;5093687;28;20291;-76
2021/10/07 01:25:40;;;;;;;4.67;3.10;;;;;;;;;;5093446;28;20309;-76
2021/10/07 01:28:07;;;;;;;5.37;3.47;;;;;;;;;;5078782;28;20270;-77
2021/10/07 01:30:35;;;;;;;5.63;3.03;;;;;;;;;;5087002;28;20287;-76
2021/10/07 01:33:02;;;;;;;7.30;3.43;;;;;;;;;;5082437;28;20281;-76
2021/10/07 01:35:29;;;;;;;5.40;3.50;;;;;;;;;;5074270;28;20296;-75
2021/10/07 01:37:58;;;;;;;9.00;3.43;;;;;;;;;;5088942;28;20613;-76
2021/10/07 01:40:25;;;;;;;8.33;3.47;;;;;;;;;;5083151;28;20268;-76
2021/10/07 01:42:53;;;;;;;6.07;3.27;;;;;;;;;;5094058;28;20285;-76
2021/10/07 01:45:21;;;;;;;7.27;3.50;;;;;;;;;;5079931;28;20263;-76
2021/10/07 01:47:48;;;;;;;10.23;3.70;;;;;;;;;;5080279;28;20202;-76
2021/10/07 01:50:16;;;;;;;9.57;4.00;;;;;;;;;;5086512;28;20679;-75
2021/10/07 01:52:43;;;;;;;7.17;3.50;;;;;;;;;;5080528;28;20289;-76
2021/10/07 01:55:12;;;;;;;5.97;3.40;;;;;;;;;;5088415;28;20648;-73
2021/10/07 01:57:39;;;;;;;4.83;3.83;;;;;;;;;;5083914;28;20623;-76
2021/10/07 02:00:08;;;;;;;7.57;4.00;;;;;;;;;;5085638;28;20293;-76
2021/10/07 02:02:35;;;;;;;6.47;4.20;;;;;;;;;;5081416;28;20314;-75
2021/10/07 02:05:02;;;;;;;6.60;3.67;;;;;;;;;;5079407;28;20290;-76
2021/10/07 02:07:29;;;;;;;5.53;3.30;;;;;;;;;;5079991;28;20293;-76
2021/10/07 02:09:56;;;;;;;5.50;3.27;;;;;;;;;;5082776;28;20202;-76
2021/10/07 02:12:25;;;;;;;8.90;3.93;;;;;;;;;;5094384;28;20243;-76
2021/10/07 02:14:52;;;;;;;6.37;3.90;;;;;;;;;;5082322;28;20278;-76
2021/10/07 02:17:19;;;;;;;6.87;3.80;;;;;;;;;;5091799;28;20232;-76
2021/10/07 02:19:46;;;;;;;6.03;4.00;;;;;;;;;;5082770;28;20227;-76
2021/10/07 02:22:14;;;;;;;6.77;4.17;;;;;;;;;;5093983;28;20408;-76
2021/10/07 02:24:41;;;;;;;5.30;3.83;;;;;;;;;;5091801;28;20235;-73
2021/10/07 02:27:08;;;;;;;8.13;4.30;;;;;;;;;;5093933;28;20256;-77
2021/10/07 02:29:37;;;;;;;6.97;3.90;;;;;;;;;;5082380;28;20218;-73
2021/10/07 02:32:04;;;;;;;6.33;3.90;;;;;;;;;;5081816;28;20226;-76
2021/10/07 02:34:31;;;;;;;10.17;3.60;;;;;;;;;;5087323;28;20287;-75
2021/10/07 02:36:59;;;;;;;7.93;4.03;;;;;;;;;;5082259;28;20209;-76
2021/10/07 02:39:26;;;;;;;5.50;3.80;;;;;;;;;;5091947;28;20209;-76
2021/10/07 02:41:53;;;;;;;8.00;3.80;;;;;;;;;;5086922;28;20282;-75
2021/10/07 02:44:20;;;;;;;9.00;4.20;;;;;;;;;;5073941;28;20296;-76
2021/10/07 02:46:49;;;;;;;8.70;4.20;;;;;;;;;;5072933;28;20314;-75
2021/10/07 02:49:16;;;;;;;9.07;4.10;;;;;;;;;;5073243;28;20235;-75
2021/10/07 02:51:43;;;;;;;5.10;3.90;;;;;;;;;;5091348;28;20735;-75
2021/10/07 02:54:10;;;;;;;8.13;3.80;;;;;;;;;;5084573;28;20230;-75
2021/10/07 02:56:37;;;;;;;9.10;4.10;;;;;;;;;;5081627;28;20226;-76
2021/10/07 02:59:05;;;;;;;6.87;4.00;;;;;;;;;;5088045;28;20284;-75
2021/10/07 03:01:32;;;;;;;7.50;4.50;;;;;;;;;;5077733;28;20254;-76
2021/10/07 03:04:00;;;;;;;5.73;4.03;;;;;;;;;;5087924;28;20233;-75
2021/10/07 03:06:28;;;;;;;8.60;4.23;;;;;;;;;;5081229;28;20302;-75
2021/10/07 03:08:58;;;;;;;9.73;4.60;;;;;;;;;;5084323;28;20282;-76
2021/10/07 03:11:25;;;;;;;8.27;4.10;;;;;;;;;;5072843;28;20204;-75
2021/10/07 03:13:52;;;;;;;8.30;4.30;;;;;;;;;;5080836;28;20233;-76
2021/10/07 03:16:20;;;;;;;9.30;4.20;;;;;;;;;;5079383;28;20253;-75
2021/10/07 03:18:47;;;;;;;7.23;4.13;;;;;;;;;;5084534;28;20198;-75
2021/10/07 03:21:15;;;;;;;10.63;4.80;;;;;;;;;;5072700;28;20293;-75
2021/10/07 03:23:42;;;;;;;7.57;4.17;;;;;;;;;;5072522;28;20613;-75
2021/10/07 03:26:10;;;;;;;8.07;3.97;;;;;;;;;;5076873;28;20309;-76
2021/10/07 03:28:37;;;;;;;6.17;3.80;;;;;;;;;;5093118;28;20230;-76
2021/10/07 03:31:04;;;;;;;9.37;3.93;;;;;;;;;;5085901;28;20627;-76
2021/10/07 03:33:32;;;;;;;8.33;4.23;;;;;;;;;;5090247;28;20226;-75
2021/10/07 03:35:59;;;;;;;8.80;4.10;;;;;;;;;;5078843;28;20295;-76
2021/10/07 03:38:29;;;;;;;6.67;3.93;;;;;;;;;;5080189;28;20577;-76
2021/10/07 03:40:56;;;;;;;10.10;4.17;;;;;;;;;;5072623;28;20278;-75
2021/10/07 03:43:24;;;;;;;8.43;3.97;;;;;;;;;;5079373;28;20287;-75
2021/10/07 03:45:51;;;;;;;7.73;3.90;;;;;;;;;;5077091;28;20305;-76
2021/10/07 03:48:18;;;;;;;7.67;4.20;;;;;;;;;;5091382;28;20247;-76
2021/10/07 03:50:45;;;;;;;6.13;4.30;;;;;;;;;;5086748;28;20285;-75
2021/10/07 03:53:12;;;;;;;5.87;3.93;;;;;;;;;;5090363;28;20230;-75
2021/10/07 03:55:41;;;;;;;9.27;4.40;;;;;;;;;;5092156;28;20290;-76
2021/10/07 03:58:08;;;;;;;6.20;4.10;;;;;;;;;;5090363;28;20294;-76
2021/10/07 04:00:35;;;;;;;7.63;3.90;;;;;;;;;;5086000;28;20293;-76
2021/10/07 04:03:03;;;;;;;10.47;4.20;;;;;;;;;;5084737;28;20246;-76
2021/10/07 04:05:30;;;;;;;8.17;4.10;;;;;;;;;;5091047;28;20228;-76
2021/10/07 04:07:57;;;;;;;6.93;4.30;;;;;;;;;;5092276;28;20241;-76
2021/10/07 04:10:25;;;;;;;8.10;3.90;;;;;;;;;;5090638;28;20229;-76
2021/10/07 04:12:53;;;;;;;7.50;4.70;;;;;;;;;;5083655;28;20283;-76
2021/10/07 04:15:20;;;;;;;8.10;4.37;;;;;;;;;;5070644;28;20239;-75
2021/10/07 04:17:48;;;;;;;7.47;4.60;;;;;;;;;;5071385;28;20257;-75
2021/10/07 04:20:15;;;;;;;7.77;4.00;;;;;;;;;;5071109;28;20574;-75
2021/10/07 04:22:42;;;;;;;7.47;3.97;;;;;;;;;;5071479;28;20268;-75
2021/10/07 04:25:10;;;;;;;7.33;4.40;;;;;;;;;;5071371;28;20739;-75
2021/10/07 04:27:38;;;;;;;5.77;4.00;;;;;;;;;;5072174;28;20313;-76
2021/10/07 04:30:07;;;;;;;8.17;4.10;;;;;;;;;;5071865;28;20317;-75
2021/10/07 04:32:35;;;;;;;9.10;3.93;;;;;;;;;;5071448;28;20618;-75
2021/10/07 04:35:02;;;;;;;6.43;3.90;;;;;;;;;;5071149;28;20288;-75
2021/10/07 04:37:29;;;;;;;5.50;3.77;;;;;;;;;;5071500;28;20285;-75
2021/10/07 04:39:56;;;;;;;8.00;3.80;;;;;;;;;;5071452;28;20236;-76
2021/10/07 04:42:24;;;;;;;8.67;3.90;;;;;;;;;;5084004;28;20213;-75
2021/10/07 04:44:51;;;;;;;6.87;3.70;;;;;;;;;;5081319;28;20398;-76
2021/10/07 04:47:19;;;;;;;7.17;4.20;;;;;;;;;;5080273;28;20283;-75
2021/10/07 04:49:46;;;;;;;6.13;3.63;;;;;;;;;;5084788;28;20232;-75
2021/10/07 04:52:14;;;;;;;7.87;3.57;;;;;;;;;;5089465;28;20287;-76
2021/10/07 04:54:41;;;;;;;6.23;3.80;;;;;;;;;;5077129;28;20231;-75
2021/10/07 04:57:08;;;;;;;6.97;4.10;;;;;;;;;;5075478;28;20232;-75
2021/10/07 04:59:35;;;;;;;5.37;3.53;;;;;;;;;;5078891;28;20230;-75
2021/10/07 05:02:02;;;;;;;6.40;3.90;;;;;;;;;;5079786;28;20341;-76
2021/10/07 05:04:31;;;;;;;8.47;3.70;;;;;;;;;;5086232;28;20237;-76
2021/10/07 05:06:58;;;;;;;8.33;3.97;;;;;;;;;;5074477;28;20260;-76
2021/10/07 05:09:26;;;;;;;7.50;3.63;;;;;;;;;;5077317;28;20735;-77
2021/10/07 05:11:53;;;;;;;8.53;3.70;;;;;;;;;;5088534;28;20285;-78
2021/10/07 05:14:20;;;;;;;4.67;3.73;;;;;;;;;;5081173;28;20286;-77
2021/10/07 05:16:47;;;;;;;8.03;3.80;;;;;;;;;;5085450;28;20678;-76
2021/10/07 05:19:14;;;;;;;6.67;3.70;;;;;;;;;;5085482;28;20230;-76
2021/10/07 05:21:43;;;;;;;8.37;3.40;;;;;;;;;;5080612;28;20729;-76
2021/10/07 05:24:10;;;;;;;7.73;3.90;;;;;;;;;;5084800;28;20290;-76
2021/10/07 05:26:37;;;;;;;7.50;3.50;;;;;;;;;;5086394;28;20689;-76
2021/10/07 05:29:04;;;;;;;6.97;3.53;;;;;;;;;;5074595;28;20615;-78
2021/10/07 05:31:32;;;;;;;8.50;3.70;;;;;;;;;;5089305;28;20241;-78
2021/10/07 05:33:59;;;;;;;7.10;4.03;;;;;;;;;;5080809;28;20573;-76
2021/10/07 05:36:26;;;;;;;7.73;3.80;;;;;;;;;;5083542;28;20289;-75
2021/10/07 05:38:55;;;;;;;9.40;3.83;;;;;;;;;;5086384;28;20296;-76
2021/10/07 05:41:22;;;;;;;10.03;4.03;;;;;;;;;;5090479;28;20233;-75
2021/10/07 05:43:49;;;;;;;7.20;3.57;;;;;;;;;;5078918;28;20290;-76
2021/10/07 05:46:16;;;;;;;6.53;3.80;;;;;;;;;;5082076;28;20320;-75
2021/10/07 05:48:43;;;;;;;9.07;4.00;;;;;;;;;;5086178;28;20199;-75
2021/10/07 05:51:10;;;;;;;7.30;3.63;;;;;;;;;;5091388;28;20294;-75
2021/10/07 05:53:38;;;;;;;7.33;3.77;;;;;;;;;;5081193;28;20737;-76
2021/10/07 05:56:06;;;;;;;6.50;3.63;;;;;;;;;;5073696;28;20203;-76
2021/10/07 05:58:34;;;;;;;7.77;3.53;;;;;;;;;;5073986;28;20303;-75
2021/10/07 06:01:01;;;;;;;8.37;4.10;;;;;;;;;;5074733;28;20207;-76
2021/10/07 06:03:28;;;;;;;6.73;3.40;;;;;;;;;;5074015;28;20262;-76
2021/10/07 06:05:56;;;;;;;8.70;3.73;;;;;;;;;;5073948;28;20282;-76
2021/10/07 06:08:23;;;;;;;9.23;4.00;;;;;;;;;;5075726;28;20319;-76
2021/10/07 06:10:50;;;;;;;6.67;3.87;;;;;;;;;;5091370;28;20288;-76
2021/10/07 06:13:18;;;;;;;7.00;3.90;;;;;;;;;;5086832;28;20285;-76
2021/10/07 06:15:48;;;;;;;8.83;3.80;;;;;;;;;;5094260;28;20204;-75
2021/10/07 06:18:15;;;;;;;7.70;3.63;;;;;;;;;;5087858;28;20202;-76
2021/10/07 06:20:42;;;;;;;9.27;4.07;;;;;;;;;;5086179;28;20226;-74
2021/10/07 06:23:09;;;;;;;8.87;3.97;;;;;;;;;;5074118;28;20195;-75
2021/10/07 06:25:37;;;;;;;8.73;4.10;;;;;;;;;;5082522;28;20289;-75
2021/10/07 06:28:05;;;;;;;8.87;3.60;;;;;;;;;;5080076;28;20305;-75
2021/10/07 06:30:33;;;;;;;7.43;3.73;;;;;;;;;;5073887;28;20293;-75
2021/10/07 06:33:01;;;;;;;6.73;4.10;;;;;;;;;;5073476;28;20553;-76
2021/10/07 06:35:28;;;;;;;7.17;4.00;;;;;;;;;;5091947;28;20726;-75
2021/10/07 06:37:56;;;;;;;7.37;4.07;;;;;;;;;;5086988;28;20219;-75
2021/10/07 06:40:23;;;;;;;10.73;4.10;;;;;;;;;;5072904;28;20241;-74
2021/10/07 06:42:50;;;;;;;8.40;3.80;;;;;;;;;;5086654;28;20221;-75
2021/10/07 06:45:17;;;;;;;10.13;4.00;;;;;;;;;;5090641;28;20281;-75
2021/10/07 06:47:46;;;;;;;6.70;4.10;;;;;;;;;;5092944;28;20245;-75
2021/10/07 06:50:13;;;;;;;9.07;3.83;;;;;;;;;;5093395;28;20298;-74
2021/10/07 06:52:41;;;;;;;7.90;3.90;;;;;;;;;;5092952;28;20289;-75
2021/10/07 06:55:10;;;;;;;8.17;3.83;;;;;;;;;;5093025;28;20708;-74
2021/10/07 06:57:37;;;;;;;7.63;3.57;;;;;;;;;;5073113;28;20199;-75
2021/10/07 07:00:05;;;;;;;5.97;4.00;;;;;;;;;;5072661;28;20252;-74
2021/10/07 07:02:32;;;;;;;8.43;4.17;;;;;;;;;;5071313;28;20782;-75
2021/10/07 07:05:03;;;;;;;8.13;4.07;;;;;;;;;;5072583;28;20294;-74
2021/10/07 07:07:31;;;;;;;5.30;3.57;;;;;;;;;;5072800;28;20692;-74
2021/10/07 07:09:58;;;;;;;10.03;3.73;;;;;;;;;;5072390;28;20195;-74
2021/10/07 07:12:25;;;;;;;7.73;3.50;;;;;;;;;;5072693;28;20230;-73
2021/10/07 07:14:52;;;;;;;8.87;3.80;;;;;;;;;;5078426;28;20749;-74
2021/10/07 07:17:19;;;;;;;8.10;3.47;;;;;;;;;;5085954;28;20198;-74
2021/10/07 07:19:48;;;;;;;8.47;4.03;;;;;;;;;;5072678;28;20297;-74
2021/10/07 07:22:16;;;;;;;9.00;3.80;;;;;;;;;;5072209;28;20615;-73
2021/10/07 07:24:44;;;;;;;7.07;4.43;;;;;;;;;;5083970;28;20612;-73
2021/10/07 07:27:13;;;;;;;8.33;4.07;;;;;;;;;;5072293;28;20305;-73
2021/10/07 07:29:40;;;;;;;9.20;3.53;;;;;;;;;;5076120;28;20199;-73
2021/10/07 07:32:07;;;;;;;6.00;3.43;;;;;;;;;;5071836;28;20625;-72
2021/10/07 07:34:34;;;;;;;9.17;3.90;;;;;;;;;;5074598;28;20286;-73
2021/10/07 07:37:02;;;;;;;6.27;3.33;;;;;;;;;;5090922;28;20194;-76
2021/10/07 07:39:30;;;;;;;7.10;3.13;;;;;;;;;;5070395;28;20241;-76
2021/10/07 07:41:57;;;;;;;5.97;3.50;;;;;;;;;;5086179;28;20599;-76
2021/10/07 07:44:26;;;;;;;7.30;3.50;;;;;;;;;;5090757;28;20743;-76
2021/10/07 07:46:53;;;;;;;9.67;3.70;;;;;;;;;;5092474;28;20285;-76
2021/10/07 07:49:20;;;;;;;7.70;3.60;;;;;;;;;;5092403;28;20285;-76
2021/10/07 07:51:48;;;;;;;10.10;4.47;;;;;;;;;;5073716;28;20234;-76
2021/10/07 07:54:15;;;;;;;6.17;3.57;;;;;;;;;;5071945;28;20287;-76
2021/10/07 07:56:43;;;;;;;10.37;3.87;;;;;;;;;;5080060;28;20285;-76
2021/10/07 07:59:10;;;;;;;8.67;3.83;;;;;;;;;;5091085;28;20679;-75
2021/10/07 08:01:38;;;;;;;7.40;3.93;;;;;;;;;;5091983;28;20213;-75
2021/10/07 08:04:06;;;;;;;7.83;3.30;;;;;;;;;;5088963;28;20201;-75
2021/10/07 08:06:34;;;;;;;8.23;3.40;;;;;;;;;;5091643;28;20194;-75
2021/10/07 08:09:01;;;;;;;8.37;3.27;;;;;;;;;;5092177;28;20275;-76
2021/10/07 08:11:28;;;;;;;8.70;3.37;;;;;;;;;;5091835;28;20607;-75
2021/10/07 08:13:58;;;;;;;9.20;3.60;;;;;;;;;;5076176;28;20633;-75
2021/10/07 08:16:26;;;;;;;15.63;8.70;;;;;;;;;;5072049;28;20195;-75
2021/10/07 08:18:54;;;;;;;9.87;4.70;;;;;;;;;;5074109;28;20190;-74
2021/10/07 08:21:21;;;;;;;10.30;3.87;;;;;;;;;;5091222;28;20206;-76
2021/10/07 08:23:49;;;;;;;11.33;6.67;;;;;;;;;;5075017;28;20646;-76
2021/10/07 08:26:16;;;;;;;16.10;13.07;;;;;;;;;;5089384;28;20236;-76
2021/10/07 08:28:44;;;;;;;16.23;8.30;;;;;;;;;;5076276;28;20221;-76
2021/10/07 08:31:13;;;;;;;6.63;3.60;;;;;;;;;;5090607;28;20666;-76
2021/10/07 08:33:40;;;;;;;6.10;3.40;;;;;;;;;;5092110;28;20608;-76
2021/10/07 08:36:07;;;;;;;7.57;3.10;;;;;;;;;;5089607;28;20289;-76
2021/10/07 08:38:34;;;;;;;6.30;3.10;;;;;;;;;;5085455;28;20369;-76
2021/10/07 08:41:04;;;;;;;8.10;3.43;;;;;;;;;;5076142;28;20227;-76
2021/10/07 08:43:32;;;;;;;8.27;2.87;;;;;;;;;;5071094;28;20206;-76
2021/10/07 08:45:59;;;;;;;5.83;3.13;;;;;;;;;;5073999;28;20285;-76
2021/10/07 08:48:28;;;;;;;7.37;3.10;;;;;;;;;;5080549;28;20312;-76
2021/10/07 08:50:55;;;;;;;9.83;4.07;;;;;;;;;;5072098;28;20654;-76
2021/10/07 08:53:22;;;;;;;6.90;3.33;;;;;;;;;;5071371;28;20230;-77
2021/10/07 08:55:49;;;;;;;9.67;3.90;;;;;;;;;;5086614;28;20619;-77
2021/10/07 08:58:17;;;;;;;6.53;4.97;;;;;;;;;;5070473;28;20644;-76
2021/10/07 09:00:44;;;;;;;11.57;5.53;;;;;;;;;;5082816;28;20285;-75
2021/10/07 09:03:18;;;;;;;11.00;4.20;;;;;;;;;;5074400;28;20310;-76
2021/10/07 09:05:47;;;;;;;12.30;3.47;;;;;;;;;;5069949;28;20194;-77
2021/10/07 09:08:15;;;;;;;8.23;3.13;;;;;;;;;;5069579;28;20211;-77
2021/10/07 09:10:45;;;;;;;9.17;2.57;;;;;;;;;;5072913;28;20290;-77
2021/10/07 09:13:14;;;;;;;6.17;2.87;;;;;;;;;;5077114;28;20225;-76
2021/10/07 09:15:42;;;;;;;8.60;3.87;;;;;;;;;;5088910;28;20289;-77
2021/10/07 09:18:09;;;;;;;7.20;2.78;;;;;;;;;;5091800;28;20201;-76
2021/10/07 09:20:37;;;;;;;8.13;2.58;;;;;;;;;;5081627;28;20281;-76
2021/10/07 09:23:10;;;;;;;9.43;2.45;;;;;;;;;;5083798;28;20800;-77
2021/10/07 09:26:08;;;;;;;13.13;3.05;;;;;;;;;;5081606;28;20287;-76
2021/10/07 09:28:52;;;;;;;7.13;2.80;;;;;;;;;;5035746;28;20220;-77
2021/10/07 09:31:24;;;;;;;11.13;3.28;;;;;;;;;;5032827;28;20204;-77
2021/10/07 09:33:53;;;;;;;8.02;3.42;;;;;;;;;;5044774;28;20809;-77
2021/10/07 09:36:21;;;;;;;9.43;3.30;;;;;;;;;;5042954;28;20266;-77
2021/10/07 09:38:50;;;;;;;5.80;2.97;;;;;;;;;;5031562;28;20202;-77
2021/10/07 09:41:19;;;;;;;7.90;3.33;;;;;;;;;;5038495;28;20224;-77
2021/10/07 09:43:47;;;;;;;8.90;2.97;;;;;;;;;;5035216;28;20287;-77
2021/10/07 09:46:19;;;;;;;8.85;3.22;;;;;;;;;;5031516;28;20224;-77
2021/10/07 09:48:51;;;;;;;10.40;3.80;;;;;;;;;;5034089;28;20294;-77
2021/10/07 09:51:18;;;;;;;8.18;3.58;;;;;;;;;;5039251;28;20287;-77
2021/10/07 09:53:46;;;;;;;7.90;3.10;;;;;;;;;;5034474;28;20677;-77
2021/10/07 09:56:32;;;;;;;6.85;3.10;;;;;;;;;;5040104;28;20239;-76
2021/10/07 09:58:59;;;;;;;5.80;2.45;;;;;;;;;;5032561;28;20231;-77
2021/10/07 10:01:26;;;;;;;7.05;2.75;;;;;;;;;;5034669;28;20759;-77
2021/10/07 10:03:54;;;;;;;7.45;2.63;;;;;;;;;;5072930;28;20302;-77
2021/10/07 10:06:21;;;;;;;7.18;2.58;;;;;;;;;;5072870;28;20203;-77
2021/10/07 10:08:49;;;;;;;6.63;2.70;;;;;;;;;;5073556;28;20229;-77
2021/10/07 10:11:19;;;;;;;7.40;2.85;;;;;;;;;;5073126;28;20204;-77
2021/10/07 10:13:48;;;;;;;6.85;2.65;;;;;;;;;;5073518;28;20381;-77
2021/10/07 10:16:16;;;;;;;9.82;3.50;;;;;;;;;;5073322;28;20587;-77
2021/10/07 10:18:44;;;;;;;6.82;2.50;;;;;;;;;;5073485;28;20191;-77
2021/10/07 10:21:14;;;;;;;6.47;2.20;;;;;;;;;;5071872;28;20282;-77
2021/10/07 10:23:41;;;;;;;4.68;2.30;;;;;;;;;;5078229;28;20228;-77
2021/10/07 10:26:10;;;;;;;7.35;2.58;;;;;;;;;;5083006;28;20249;-77
2021/10/07 10:28:52;;;;;;;6.85;2.55;;;;;;;;;;5074434;28;20218;-77
2021/10/07 10:31:30;;;;;;;6.72;2.67;;;;;;;;;;5081290;28;20277;-77
2021/10/07 10:34:08;;;;;;;5.97;2.28;;;;;;;;;;5089807;28;20618;-77
2021/10/07 10:36:37;;;;;;;4.80;2.22;;;;;;;;;;5087395;28;20310;-78
2021/10/07 10:39:06;;;;;;;5.07;2.33;;;;;;;;;;5087526;28;20277;-77
2021/10/07 10:41:47;;;;;;;5.25;2.30;;;;;;;;;;5087161;28;20261;-77
2021/10/07 10:44:36;;;;;;;6.20;2.10;;;;;;;;;;5090480;28;20298;-77
2021/10/07 10:47:15;;;;;;;6.75;2.17;;;;;;;;;;5078436;28;20202;-77
2021/10/07 10:49:54;;;;;;;4.72;1.98;;;;;;;;;;5078198;28;20291;-77
2021/10/07 10:52:22;;;;;;;3.83;1.83;;;;;;;;;;5083905;28;20199;-77
2021/10/07 10:54:51;;;;;;;4.97;1.95;;;;;;;;;;5090446;28;20202;-77
2021/10/07 10:57:32;;;;;;;6.65;2.20;;;;;;;;;;5083282;28;20202;-77
2021/10/07 11:00:08;;;;;;;4.40;2.00;;;;;;;;;;5079909;28;20195;-77
2021/10/07 11:02:35;;;;;;;4.20;1.70;;;;;;;;;;5089231;28;20256;-78
2021/10/07 11:05:11;;;;;;;6.22;2.10;;;;;;;;;;5078648;28;20201;-77
2021/10/07 11:07:39;;;;;;;6.15;1.70;;;;;;;;;;5082381;28;20230;-77
2021/10/07 11:10:08;;;;;;;3.75;1.60;;;;;;;;;;5082991;28;20220;-78
2021/10/07 11:12:43;;;;;;;3.60;1.60;;;;;;;;;;5080978;28;20203;-79
2021/10/07 11:15:12;;;;;;;4.32;1.70;;;;;;;;;;5073058;28;20209;-76
2021/10/07 11:17:41;;;;;;;5.72;1.50;;;;;;;;;;5089406;28;20293;-77
2021/10/07 11:20:08;;;;;;;4.13;1.40;;;;;;;;;;5082444;28;20190;-76
2021/10/07 11:22:36;;;;;;;5.03;1.63;;;;;;;;;;5084196;28;20282;-77
2021/10/07 11:25:06;;;;;;;6.50;1.83;;;;;;;;;;5081005;28;20274;-77
2021/10/07 11:27:34;;;;;;;6.07;1.40;;;;;;;;;;5087693;28;20195;-76
2021/10/07 11:30:02;;;;;;;4.20;1.50;;;;;;;;;;5085284;28;20301;-76
2021/10/07 11:32:30;;;;;;;3.38;1.33;;;;;;;;;;5076725;28;20206;-77
2021/10/07 11:34:59;;;;;;;3.88;1.80;;;;;;;;;;5089948;28;20229;-77
2021/10/07 11:37:26;;;;;;;3.60;1.58;;;;;;;;;;5092501;28;20199;-77
2021/10/07 11:40:08;;;;;;;4.65;1.45;;;;;;;;;;5080022;28;20779;-76
2021/10/07 11:42:39;;;;;;;8.18;1.70;;;;;;;;;;5083008;28;20289;-76
2021/10/07 11:45:18;;;;;;;4.38;1.50;;;;;;;;;;5087873;28;20203;-77
2021/10/07 11:47:46;;;;;;;15.73;7.35;;;;;;;;;;5083854;28;20209;-77
2021/10/07 11:50:14;;;;;;;18.80;12.82;;;;;;;;;;5086071;28;20223;-76
2021/10/07 11:52:41;;;;;;;11.00;8.18;;;;;;;;;;5086493;28;20526;-76
2021/10/07 11:55:09;;;;;;;7.57;2.60;;;;;;;;;;5085934;28;20304;-77
2021/10/07 11:57:36;;;;;;;5.38;2.17;;;;;;;;;;5080708;28;20343;-77
2021/10/07 12:00:04;;;;;;;7.30;2.97;;;;;;;;;;5075458;28;20294;-77
2021/10/07 12:02:31;;;;;;;6.38;2.47;;;;;;;;;;5078626;28;20219;-77
2021/10/07 12:05:13;;;;;;;5.78;2.70;;;;;;;;;;5087660;28;20229;-77
2021/10/07 12:07:41;;;;;;;5.25;2.47;;;;;;;;;;5070942;28;20294;-77
2021/10/07 12:10:09;;;;;;;5.53;2.60;;;;;;;;;;5070531;28;20339;-77
2021/10/07 12:12:36;;;;;;;10.05;2.88;;;;;;;;;;5071164;28;20286;-77
2021/10/07 12:15:03;;;;;;;6.63;2.58;;;;;;;;;;5071195;28;20290;-77
2021/10/07 12:17:30;;;;;;;6.50;2.10;;;;;;;;;;5071834;28;20290;-77
2021/10/07 12:19:59;;;;;;;8.50;2.30;;;;;;;;;;5071666;28;20287;-76
2021/10/07 12:22:27;;;;;;;8.75;2.60;;;;;;;;;;5071258;28;20201;-77
2021/10/07 12:25:00;;;;;;;6.35;2.40;;;;;;;;;;5071463;28;20195;-77
2021/10/07 12:27:33;;;;;;;5.47;2.05;;;;;;;;;;5073167;28;20332;-77
2021/10/07 12:30:05;;;;;;;7.68;2.05;;;;;;;;;;5089169;28;20218;-77
2021/10/07 12:32:33;;;;;;;6.30;2.15;;;;;;;;;;5079253;28;20645;-77
2021/10/07 12:35:00;;;;;;;5.00;2.20;;;;;;;;;;5085104;28;20285;-77
2021/10/07 12:37:29;;;;;;;5.93;2.10;;;;;;;;;;5079068;28;20666;-77
2021/10/07 12:39:57;;;;;;;7.43;2.42;;;;;;;;;;5086670;28;20254;-77
2021/10/07 12:42:26;;;;;;;7.82;2.60;;;;;;;;;;5078793;28;20553;-77
2021/10/07 12:44:56;;;;;;;5.72;2.38;;;;;;;;;;5088476;28;20194;-77
2021/10/07 12:47:27;;;;;;;7.45;2.28;;;;;;;;;;5087501;28;20789;-77
2021/10/07 12:49:55;;;;;;;8.52;2.58;;;;;;;;;;5097945;28;20713;-76
2021/10/07 12:52:24;;;;;;;5.63;1.95;;;;;;;;;;5097699;28;20293;-77
2021/10/07 12:54:52;;;;;;;7.22;2.05;;;;;;;;;;5092610;28;20227;-77
2021/10/07 12:57:37;;;;;;;4.05;1.75;;;;;;;;;;5085881;28;20286;-77
2021/10/07 13:00:05;;;;;;;8.65;2.22;;;;;;;;;;5083999;28;20226;-77
2021/10/07 13:02:33;;;;;;;5.65;2.10;;;;;;;;;;5085551;28;20305;-77
2021/10/07 13:05:12;;;;;;;6.20;2.15;;;;;;;;;;5079681;28;20277;-77
2021/10/07 13:07:39;;;;;;;7.95;2.65;;;;;;;;;;5090895;28;20194;-77
2021/10/07 13:10:06;;;;;;;4.75;2.20;;;;;;;;;;5077733;28;20249;-77
2021/10/07 13:12:34;;;;;;;6.10;2.20;;;;;;;;;;5077504;28;20230;-76
2021/10/07 13:15:03;;;;;;;6.22;2.30;;;;;;;;;;5078867;28;20234;-76
2021/10/07 13:17:30;;;;;;;8.30;2.67;;;;;;;;;;5097552;28;20328;-76
2021/10/07 13:19:57;;;;;;;8.43;2.40;;;;;;;;;;5087466;28;20729;-77
2021/10/07 13:22:24;;;;;;;5.13;1.92;;;;;;;;;;5079783;28;20297;-76
2021/10/07 13:24:51;;;;;;;6.93;2.00;;;;;;;;;;5090295;28;20302;-76
2021/10/07 13:27:23;;;;;;;7.10;2.42;;;;;;;;;;5088626;28;20646;-76
2021/10/07 13:29:50;;;;;;;5.78;2.30;;;;;;;;;;5084736;28;20598;-76
2021/10/07 13:32:19;;;;;;;6.82;2.30;;;;;;;;;;5086581;28;20218;-76
2021/10/07 13:34:46;;;;;;;6.78;1.85;;;;;;;;;;5077303;28;20673;-77
2021/10/07 13:37:14;;;;;;;6.85;1.90;;;;;;;;;;5094841;28;20229;-76
2021/10/07 13:39:41;;;;;;;6.07;1.83;;;;;;;;;;5097579;28;20265;-76
2021/10/07 13:42:08;;;;;;;6.28;2.15;;;;;;;;;;5082096;28;20786;-77
2021/10/07 13:44:36;;;;;;;8.50;2.42;;;;;;;;;;5087459;28;20285;-76
2021/10/07 13:47:03;;;;;;;6.60;2.70;;;;;;;;;;5082521;28;20286;-76
2021/10/07 13:49:32;;;;;;;5.93;2.10;;;;;;;;;;5091894;28;20340;-76
2021/10/07 13:51:59;;;;;;;6.05;2.30;;;;;;;;;;5081944;28;20202;-76
2021/10/07 13:54:26;;;;;;;5.93;2.30;;;;;;;;;;5085583;28;20202;-76
2021/10/07 13:56:53;;;;;;;5.22;2.08;;;;;;;;;;5078371;28;20289;-76
2021/10/07 13:59:20;;;;;;;7.75;1.95;;;;;;;;;;5077732;28;20290;-76
2021/10/07 14:01:48;;;;;;;6.90;2.00;;;;;;;;;;5081861;28;20375;-76
2021/10/07 14:04:15;;;;;;;9.88;2.08;;;;;;;;;;5087481;28;20282;-76
2021/10/07 14:06:43;;;;;;;4.72;1.95;;;;;;;;;;5084650;28;20289;-76
2021/10/07 14:09:11;;;;;;;5.57;2.08;;;;;;;;;;5089482;28;20312;-77
2021/10/07 14:11:38;;;;;;;8.48;2.20;;;;;;;;;;5085962;28;20286;-76
2021/10/07 14:14:05;;;;;;;4.57;2.22;;;;;;;;;;5073155;28;20724;-77
2021/10/07 14:16:32;;;;;;;7.15;2.00;;;;;;;;;;5073020;28;20217;-77
2021/10/07 14:18:59;;;;;;;10.55;2.35;;;;;;;;;;5072622;28;20638;-77
2021/10/07 14:21:27;;;;;;;5.85;1.95;;;;;;;;;;5086719;28;20761;-77
2021/10/07 14:23:55;;;;;;;7.13;2.03;;;;;;;;;;5093700;28;20202;-76
2021/10/07 14:26:23;;;;;;;5.82;1.88;;;;;;;;;;5095176;28;20575;-77
2021/10/07 14:28:50;;;;;;;6.72;2.10;;;;;;;;;;5089158;28;20277;-77
2021/10/07 14:31:17;;;;;;;4.90;1.83;;;;;;;;;;5086407;28;20190;-77
2021/10/07 14:33:44;;;;;;;4.72;2.00;;;;;;;;;;5089588;28;20285;-77
2021/10/07 14:36:12;;;;;;;7.10;2.35;;;;;;;;;;5084994;28;20230;-77
2021/10/07 14:38:39;;;;;;;6.55;2.25;;;;;;;;;;5089014;28;20203;-77
2021/10/07 14:41:08;;;;;;;5.43;1.83;;;;;;;;;;5088626;28;20698;-77
2021/10/07 14:43:35;;;;;;;7.53;2.30;;;;;;;;;;5088418;28;20645;-77
2021/10/07 14:46:02;;;;;;;9.35;2.38;;;;;;;;;;5091659;28;20230;-77
2021/10/07 14:48:29;;;;;;;12.98;2.47;;;;;;;;;;5078448;28;20282;-77
2021/10/07 14:50:57;;;;;;;6.45;2.33;;;;;;;;;;5083462;28;20772;-77
2021/10/07 14:53:24;;;;;;;5.20;1.80;;;;;;;;;;5083563;28;20195;-77